sensor_id;sensor_type;location;lat;lon;timestamp;P1;durP1;ratioP1;P2;durP2;ratioP2
12122;SDS011;6125;59.628;17.852;2023-08-01T00:00:10;2.60;;;2.40;;
12122;SDS011;6125;59.628;17.852;2023-08-01T00:02:37;6.47;;;2.93;;
12122;SDS011;6125;59.628;17.852;2023-08-01T00:05:07;4.90;;;2.63;;
12122;SDS011;6125;59.628;17.852;2023-08-01T00:07:35;3.50;;;2.87;;
12122;SDS011;6125;59.628;17.852;2023-08-01T00:10:04;4.50;;;2.23;;
12122;SDS011;6125;59.628;17.852;2023-08-01T00:12:31;5.80;;;2.30;;
12122;SDS011;6125;59.628;17.852;2023-08-01T00:14:58;4.47;;;2.80;;
12122;SDS011;6125;59.628;17.852;2023-08-01T00:17:25;4.83;;;2.50;;
12122;SDS011;6125;59.628;17.852;2023-08-01T00:19:52;3.80;;;2.30;;
12122;SDS011;6125;59.628;17.852;2023-08-01T00:22:20;4.67;;;2.40;;
12122;SDS011;6125;59.628;17.852;2023-08-01T00:24:47;4.30;;;2.63;;
12122;SDS011;6125;59.628;17.852;2023-08-01T00:27:15;4.73;;;2.90;;
12122;SDS011;6125;59.628;17.852;2023-08-01T00:29:42;4.40;;;2.97;;
12122;SDS011;6125;59.628;17.852;2023-08-01T00:32:10;7.67;;;2.83;;
12122;SDS011;6125;59.628;17.852;2023-08-01T00:34:37;6.80;;;3.00;;
12122;SDS011;6125;59.628;17.852;2023-08-01T00:37:04;6.70;;;2.83;;
12122;SDS011;6125;59.628;17.852;2023-08-01T00:39:31;4.73;;;3.07;;
12122;SDS011;6125;59.628;17.852;2023-08-01T00:41:58;4.83;;;2.60;;
12122;SDS011;6125;59.628;17.852;2023-08-01T00:44:27;5.93;;;2.40;;
12122;SDS011;6125;59.628;17.852;2023-08-01T00:46:54;3.70;;;2.60;;
12122;SDS011;6125;59.628;17.852;2023-08-01T00:49:21;5.17;;;2.50;;
12122;SDS011;6125;59.628;17.852;2023-08-01T00:51:48;5.17;;;2.77;;
12122;SDS011;6125;59.628;17.852;2023-08-01T00:54:15;4.40;;;2.93;;
12122;SDS011;6125;59.628;17.852;2023-08-01T00:56:42;2.77;;;2.37;;
12122;SDS011;6125;59.628;17.852;2023-08-01T00:59:10;6.10;;;2.60;;
12122;SDS011;6125;59.628;17.852;2023-08-01T01:01:39;4.97;;;3.00;;
12122;SDS011;6125;59.628;17.852;2023-08-01T01:04:06;6.80;;;2.77;;
12122;SDS011;6125;59.628;17.852;2023-08-01T01:06:34;4.33;;;2.57;;
12122;SDS011;6125;59.628;17.852;2023-08-01T01:09:14;4.43;;;2.57;;
12122;SDS011;6125;59.628;17.852;2023-08-01T01:11:42;8.20;;;3.27;;
12122;SDS011;6125;59.628;17.852;2023-08-01T01:14:09;5.20;;;2.80;;
12122;SDS011;6125;59.628;17.852;2023-08-01T01:16:38;7.40;;;2.63;;
12122;SDS011;6125;59.628;17.852;2023-08-01T01:19:06;8.17;;;3.13;;
12122;SDS011;6125;59.628;17.852;2023-08-01T01:21:35;11.57;;;3.17;;
12122;SDS011;6125;59.628;17.852;2023-08-01T01:24:05;4.10;;;2.80;;
12122;SDS011;6125;59.628;17.852;2023-08-01T01:26:34;5.53;;;2.73;;
12122;SDS011;6125;59.628;17.852;2023-08-01T01:29:03;4.80;;;3.30;;
12122;SDS011;6125;59.628;17.852;2023-08-01T01:31:33;6.43;;;2.83;;
12122;SDS011;6125;59.628;17.852;2023-08-01T01:34:01;5.90;;;2.60;;
12122;SDS011;6125;59.628;17.852;2023-08-01T01:36:29;3.13;;;2.80;;
12122;SDS011;6125;59.628;17.852;2023-08-01T01:38:57;5.27;;;2.80;;
12122;SDS011;6125;59.628;17.852;2023-08-01T01:41:24;3.50;;;2.57;;
12122;SDS011;6125;59.628;17.852;2023-08-01T01:43:51;7.40;;;3.77;;
12122;SDS011;6125;59.628;17.852;2023-08-01T01:46:18;6.57;;;3.30;;
12122;SDS011;6125;59.628;17.852;2023-08-01T01:48:45;8.80;;;3.23;;
12122;SDS011;6125;59.628;17.852;2023-08-01T01:51:13;9.93;;;3.77;;
12122;SDS011;6125;59.628;17.852;2023-08-01T01:53:40;6.53;;;3.00;;
12122;SDS011;6125;59.628;17.852;2023-08-01T01:56:09;8.30;;;3.23;;
12122;SDS011;6125;59.628;17.852;2023-08-01T01:58:36;4.07;;;2.83;;
12122;SDS011;6125;59.628;17.852;2023-08-01T02:01:03;5.87;;;3.03;;
12122;SDS011;6125;59.628;17.852;2023-08-01T02:03:30;6.33;;;2.80;;
12122;SDS011;6125;59.628;17.852;2023-08-01T02:05:57;7.73;;;3.40;;
12122;SDS011;6125;59.628;17.852;2023-08-01T02:08:24;6.63;;;3.50;;
12122;SDS011;6125;59.628;17.852;2023-08-01T02:10:51;4.97;;;2.77;;
12122;SDS011;6125;59.628;17.852;2023-08-01T02:13:21;7.60;;;3.83;;
12122;SDS011;6125;59.628;17.852;2023-08-01T02:15:48;8.20;;;3.40;;
12122;SDS011;6125;59.628;17.852;2023-08-01T02:18:15;10.00;;;3.60;;
12122;SDS011;6125;59.628;17.852;2023-08-01T02:20:42;6.63;;;3.60;;
12122;SDS011;6125;59.628;17.852;2023-08-01T02:23:09;4.87;;;3.20;;
12122;SDS011;6125;59.628;17.852;2023-08-01T02:25:38;6.10;;;3.30;;
12122;SDS011;6125;59.628;17.852;2023-08-01T02:28:05;6.10;;;3.40;;
12122;SDS011;6125;59.628;17.852;2023-08-01T02:30:34;5.17;;;3.20;;
12122;SDS011;6125;59.628;17.852;2023-08-01T02:33:01;9.80;;;3.80;;
12122;SDS011;6125;59.628;17.852;2023-08-01T02:35:28;5.43;;;3.53;;
12122;SDS011;6125;59.628;17.852;2023-08-01T02:37:55;10.03;;;3.53;;
12122;SDS011;6125;59.628;17.852;2023-08-01T02:40:22;6.23;;;4.13;;
12122;SDS011;6125;59.628;17.852;2023-08-01T02:42:51;5.87;;;3.20;;
12122;SDS011;6125;59.628;17.852;2023-08-01T02:45:18;8.07;;;3.13;;
12122;SDS011;6125;59.628;17.852;2023-08-01T02:47:46;9.33;;;3.53;;
12122;SDS011;6125;59.628;17.852;2023-08-01T02:50:13;6.83;;;3.57;;
12122;SDS011;6125;59.628;17.852;2023-08-01T02:52:40;8.63;;;4.80;;
12122;SDS011;6125;59.628;17.852;2023-08-01T02:55:08;6.67;;;3.80;;
12122;SDS011;6125;59.628;17.852;2023-08-01T02:57:35;10.97;;;4.03;;
12122;SDS011;6125;59.628;17.852;2023-08-01T03:00:02;6.60;;;3.73;;
12122;SDS011;6125;59.628;17.852;2023-08-01T03:02:31;6.63;;;3.53;;
12122;SDS011;6125;59.628;17.852;2023-08-01T03:04:59;6.77;;;3.47;;
12122;SDS011;6125;59.628;17.852;2023-08-01T03:07:30;6.60;;;3.57;;
12122;SDS011;6125;59.628;17.852;2023-08-01T03:09:57;8.47;;;3.97;;
12122;SDS011;6125;59.628;17.852;2023-08-01T03:12:24;8.37;;;3.37;;
12122;SDS011;6125;59.628;17.852;2023-08-01T03:14:51;8.97;;;3.87;;
12122;SDS011;6125;59.628;17.852;2023-08-01T03:17:18;6.13;;;3.43;;
12122;SDS011;6125;59.628;17.852;2023-08-01T03:19:45;7.63;;;3.03;;
12122;SDS011;6125;59.628;17.852;2023-08-01T03:22:13;5.27;;;3.47;;
12122;SDS011;6125;59.628;17.852;2023-08-01T03:24:40;6.37;;;3.27;;
12122;SDS011;6125;59.628;17.852;2023-08-01T03:27:07;7.30;;;3.47;;
12122;SDS011;6125;59.628;17.852;2023-08-01T03:29:34;6.00;;;3.20;;
12122;SDS011;6125;59.628;17.852;2023-08-01T03:32:02;8.13;;;3.57;;
12122;SDS011;6125;59.628;17.852;2023-08-01T03:34:29;9.60;;;3.20;;
12122;SDS011;6125;59.628;17.852;2023-08-01T03:36:56;5.60;;;3.17;;
12122;SDS011;6125;59.628;17.852;2023-08-01T03:39:25;8.60;;;3.27;;
12122;SDS011;6125;59.628;17.852;2023-08-01T03:41:52;8.33;;;2.87;;
12122;SDS011;6125;59.628;17.852;2023-08-01T03:44:20;4.23;;;2.83;;
12122;SDS011;6125;59.628;17.852;2023-08-01T03:46:47;5.73;;;2.93;;
12122;SDS011;6125;59.628;17.852;2023-08-01T03:49:14;11.07;;;3.10;;
12122;SDS011;6125;59.628;17.852;2023-08-01T03:51:41;3.90;;;2.63;;
12122;SDS011;6125;59.628;17.852;2023-08-01T03:54:08;2.60;;;2.33;;
12122;SDS011;6125;59.628;17.852;2023-08-01T03:56:36;4.83;;;3.57;;
12122;SDS011;6125;59.628;17.852;2023-08-01T03:59:04;6.20;;;2.50;;
12122;SDS011;6125;59.628;17.852;2023-08-01T04:01:32;3.23;;;2.20;;
12122;SDS011;6125;59.628;17.852;2023-08-01T04:03:59;5.13;;;1.97;;
12122;SDS011;6125;59.628;17.852;2023-08-01T04:06:26;7.80;;;2.47;;
12122;SDS011;6125;59.628;17.852;2023-08-01T04:08:53;4.07;;;2.50;;
12122;SDS011;6125;59.628;17.852;2023-08-01T04:11:21;3.03;;;2.60;;
12122;SDS011;6125;59.628;17.852;2023-08-01T04:13:50;3.30;;;2.47;;
12122;SDS011;6125;59.628;17.852;2023-08-01T04:16:17;6.10;;;2.57;;
12122;SDS011;6125;59.628;17.852;2023-08-01T04:18:44;4.03;;;2.30;;
12122;SDS011;6125;59.628;17.852;2023-08-01T04:21:13;2.70;;;2.40;;
12122;SDS011;6125;59.628;17.852;2023-08-01T04:23:41;5.60;;;2.47;;
12122;SDS011;6125;59.628;17.852;2023-08-01T04:26:08;5.03;;;2.47;;
12122;SDS011;6125;59.628;17.852;2023-08-01T04:28:35;4.70;;;2.73;;
12122;SDS011;6125;59.628;17.852;2023-08-01T04:31:03;7.53;;;2.23;;
12122;SDS011;6125;59.628;17.852;2023-08-01T04:33:30;4.17;;;2.53;;
12122;SDS011;6125;59.628;17.852;2023-08-01T04:35:57;5.10;;;2.70;;
12122;SDS011;6125;59.628;17.852;2023-08-01T04:38:24;4.80;;;2.70;;
12122;SDS011;6125;59.628;17.852;2023-08-01T04:40:52;4.70;;;2.63;;
12122;SDS011;6125;59.628;17.852;2023-08-01T04:43:19;2.27;;;1.90;;
12122;SDS011;6125;59.628;17.852;2023-08-01T04:45:46;5.00;;;2.83;;
12122;SDS011;6125;59.628;17.852;2023-08-01T04:48:14;4.60;;;2.70;;
12122;SDS011;6125;59.628;17.852;2023-08-01T04:50:41;9.00;;;2.70;;
12122;SDS011;6125;59.628;17.852;2023-08-01T04:53:08;6.87;;;2.70;;
12122;SDS011;6125;59.628;17.852;2023-08-01T04:55:36;9.57;;;3.00;;
12122;SDS011;6125;59.628;17.852;2023-08-01T04:58:03;5.20;;;2.70;;
12122;SDS011;6125;59.628;17.852;2023-08-01T05:00:30;4.63;;;2.37;;
12122;SDS011;6125;59.628;17.852;2023-08-01T05:02:57;6.50;;;3.33;;
12122;SDS011;6125;59.628;17.852;2023-08-01T05:05:25;8.27;;;2.90;;
12122;SDS011;6125;59.628;17.852;2023-08-01T05:08:00;4.10;;;2.33;;
12122;SDS011;6125;59.628;17.852;2023-08-01T05:10:27;8.97;;;3.03;;
12122;SDS011;6125;59.628;17.852;2023-08-01T05:12:54;3.33;;;2.33;;
12122;SDS011;6125;59.628;17.852;2023-08-01T05:15:22;3.67;;;2.50;;
12122;SDS011;6125;59.628;17.852;2023-08-01T05:17:49;5.97;;;2.50;;
12122;SDS011;6125;59.628;17.852;2023-08-01T05:20:16;9.20;;;2.60;;
12122;SDS011;6125;59.628;17.852;2023-08-01T05:22:45;5.23;;;2.73;;
12122;SDS011;6125;59.628;17.852;2023-08-01T05:25:12;3.37;;;2.30;;
12122;SDS011;6125;59.628;17.852;2023-08-01T05:27:39;6.67;;;2.67;;
12122;SDS011;6125;59.628;17.852;2023-08-01T05:30:06;3.70;;;2.37;;
12122;SDS011;6125;59.628;17.852;2023-08-01T05:32:34;4.67;;;2.40;;
12122;SDS011;6125;59.628;17.852;2023-08-01T05:35:01;6.27;;;2.10;;
12122;SDS011;6125;59.628;17.852;2023-08-01T05:37:29;4.67;;;2.30;;
12122;SDS011;6125;59.628;17.852;2023-08-01T05:39:57;4.13;;;2.20;;
12122;SDS011;6125;59.628;17.852;2023-08-01T05:42:24;3.93;;;2.50;;
12122;SDS011;6125;59.628;17.852;2023-08-01T05:44:51;4.33;;;2.20;;
12122;SDS011;6125;59.628;17.852;2023-08-01T05:47:18;5.13;;;2.13;;
12122;SDS011;6125;59.628;17.852;2023-08-01T05:49:45;2.50;;;2.10;;
12122;SDS011;6125;59.628;17.852;2023-08-01T05:52:12;4.17;;;1.93;;
12122;SDS011;6125;59.628;17.852;2023-08-01T05:54:39;3.47;;;1.80;;
12122;SDS011;6125;59.628;17.852;2023-08-01T05:57:08;2.23;;;1.63;;
12122;SDS011;6125;59.628;17.852;2023-08-01T05:59:35;4.23;;;2.00;;
12122;SDS011;6125;59.628;17.852;2023-08-01T06:02:02;3.90;;;1.80;;
12122;SDS011;6125;59.628;17.852;2023-08-01T06:04:30;5.57;;;2.20;;
12122;SDS011;6125;59.628;17.852;2023-08-01T06:06:57;7.73;;;1.90;;
12122;SDS011;6125;59.628;17.852;2023-08-01T06:09:24;5.23;;;2.10;;
12122;SDS011;6125;59.628;17.852;2023-08-01T06:11:52;4.00;;;2.07;;
12122;SDS011;6125;59.628;17.852;2023-08-01T06:14:20;5.90;;;1.90;;
12122;SDS011;6125;59.628;17.852;2023-08-01T06:16:47;5.27;;;2.03;;
12122;SDS011;6125;59.628;17.852;2023-08-01T06:19:14;5.07;;;2.20;;
12122;SDS011;6125;59.628;17.852;2023-08-01T06:21:41;6.23;;;2.03;;
12122;SDS011;6125;59.628;17.852;2023-08-01T06:24:08;6.00;;;2.50;;
12122;SDS011;6125;59.628;17.852;2023-08-01T06:26:35;4.27;;;1.90;;
12122;SDS011;6125;59.628;17.852;2023-08-01T06:29:02;3.73;;;2.20;;
12122;SDS011;6125;59.628;17.852;2023-08-01T06:31:31;4.47;;;2.00;;
12122;SDS011;6125;59.628;17.852;2023-08-01T06:33:58;4.70;;;2.07;;
12122;SDS011;6125;59.628;17.852;2023-08-01T06:36:25;3.63;;;1.70;;
12122;SDS011;6125;59.628;17.852;2023-08-01T06:38:52;5.67;;;2.00;;
12122;SDS011;6125;59.628;17.852;2023-08-01T06:41:19;5.77;;;1.93;;
12122;SDS011;6125;59.628;17.852;2023-08-01T06:43:46;2.13;;;1.77;;
12122;SDS011;6125;59.628;17.852;2023-08-01T06:46:13;5.63;;;2.83;;
12122;SDS011;6125;59.628;17.852;2023-08-01T06:48:42;6.77;;;2.03;;
12122;SDS011;6125;59.628;17.852;2023-08-01T06:51:09;2.87;;;1.87;;
12122;SDS011;6125;59.628;17.852;2023-08-01T06:53:36;4.50;;;2.03;;
12122;SDS011;6125;59.628;17.852;2023-08-01T06:56:03;2.20;;;1.83;;
12122;SDS011;6125;59.628;17.852;2023-08-01T06:58:30;2.73;;;1.80;;
12122;SDS011;6125;59.628;17.852;2023-08-01T07:00:57;3.80;;;1.80;;
12122;SDS011;6125;59.628;17.852;2023-08-01T07:03:24;5.10;;;2.00;;
12122;SDS011;6125;59.628;17.852;2023-08-01T07:05:53;3.60;;;1.57;;
12122;SDS011;6125;59.628;17.852;2023-08-01T07:08:20;2.70;;;1.57;;
12122;SDS011;6125;59.628;17.852;2023-08-01T07:10:47;5.00;;;2.20;;
12122;SDS011;6125;59.628;17.852;2023-08-01T07:13:14;9.83;;;2.87;;
12122;SDS011;6125;59.628;17.852;2023-08-01T07:15:44;4.57;;;2.30;;
12122;SDS011;6125;59.628;17.852;2023-08-01T07:18:11;4.37;;;2.10;;
12122;SDS011;6125;59.628;17.852;2023-08-01T07:20:39;5.20;;;2.00;;
12122;SDS011;6125;59.628;17.852;2023-08-01T07:23:07;3.27;;;1.80;;
12122;SDS011;6125;59.628;17.852;2023-08-01T07:25:34;4.47;;;1.90;;
12122;SDS011;6125;59.628;17.852;2023-08-01T07:28:01;4.70;;;1.97;;
12122;SDS011;6125;59.628;17.852;2023-08-01T07:30:28;7.83;;;2.03;;
12122;SDS011;6125;59.628;17.852;2023-08-01T07:32:56;3.80;;;1.70;;
12122;SDS011;6125;59.628;17.852;2023-08-01T07:35:23;5.27;;;2.50;;
12122;SDS011;6125;59.628;17.852;2023-08-01T07:37:50;4.20;;;1.80;;
12122;SDS011;6125;59.628;17.852;2023-08-01T07:40:18;6.73;;;1.90;;
12122;SDS011;6125;59.628;17.852;2023-08-01T07:42:45;3.87;;;1.80;;
12122;SDS011;6125;59.628;17.852;2023-08-01T07:45:12;4.57;;;1.77;;
12122;SDS011;6125;59.628;17.852;2023-08-01T07:47:39;3.23;;;1.90;;
12122;SDS011;6125;59.628;17.852;2023-08-01T07:50:06;4.10;;;2.10;;
12122;SDS011;6125;59.628;17.852;2023-08-01T07:52:34;5.63;;;2.23;;
12122;SDS011;6125;59.628;17.852;2023-08-01T07:55:01;3.23;;;1.80;;
12122;SDS011;6125;59.628;17.852;2023-08-01T07:57:29;4.53;;;2.00;;
12122;SDS011;6125;59.628;17.852;2023-08-01T07:59:56;3.20;;;1.80;;
12122;SDS011;6125;59.628;17.852;2023-08-01T08:02:23;5.57;;;1.93;;
12122;SDS011;6125;59.628;17.852;2023-08-01T08:04:50;4.87;;;2.53;;
12122;SDS011;6125;59.628;17.852;2023-08-01T08:07:17;5.17;;;2.27;;
12122;SDS011;6125;59.628;17.852;2023-08-01T08:09:44;7.33;;;2.30;;
12122;SDS011;6125;59.628;17.852;2023-08-01T08:12:11;2.50;;;2.00;;
12122;SDS011;6125;59.628;17.852;2023-08-01T08:14:40;3.90;;;1.80;;
12122;SDS011;6125;59.628;17.852;2023-08-01T08:17:07;4.50;;;1.80;;
12122;SDS011;6125;59.628;17.852;2023-08-01T08:19:34;3.43;;;2.13;;
12122;SDS011;6125;59.628;17.852;2023-08-01T08:22:01;4.03;;;1.73;;
12122;SDS011;6125;59.628;17.852;2023-08-01T08:24:28;6.10;;;2.13;;
12122;SDS011;6125;59.628;17.852;2023-08-01T08:26:55;2.63;;;1.60;;
12122;SDS011;6125;59.628;17.852;2023-08-01T08:29:23;3.80;;;1.93;;
12122;SDS011;6125;59.628;17.852;2023-08-01T08:31:51;4.13;;;1.90;;
12122;SDS011;6125;59.628;17.852;2023-08-01T08:34:18;4.17;;;1.63;;
12122;SDS011;6125;59.628;17.852;2023-08-01T08:36:45;3.57;;;1.77;;
12122;SDS011;6125;59.628;17.852;2023-08-01T08:39:12;6.17;;;2.03;;
12122;SDS011;6125;59.628;17.852;2023-08-01T08:41:43;3.77;;;2.07;;
12122;SDS011;6125;59.628;17.852;2023-08-01T08:44:14;3.10;;;1.97;;
12122;SDS011;6125;59.628;17.852;2023-08-01T08:46:43;1.87;;;1.70;;
12122;SDS011;6125;59.628;17.852;2023-08-01T08:49:12;4.17;;;1.80;;
12122;SDS011;6125;59.628;17.852;2023-08-01T08:51:40;6.00;;;2.20;;
12122;SDS011;6125;59.628;17.852;2023-08-01T08:54:10;2.87;;;1.83;;
12122;SDS011;6125;59.628;17.852;2023-08-01T08:56:37;2.23;;;1.67;;
12122;SDS011;6125;59.628;17.852;2023-08-01T08:59:05;2.87;;;1.63;;
12122;SDS011;6125;59.628;17.852;2023-08-01T09:01:35;4.70;;;1.73;;
12122;SDS011;6125;59.628;17.852;2023-08-01T09:04:02;3.67;;;1.90;;
12122;SDS011;6125;59.628;17.852;2023-08-01T09:06:31;10.20;;;2.27;;
12122;SDS011;6125;59.628;17.852;2023-08-01T09:09:01;7.50;;;3.10;;
12122;SDS011;6125;59.628;17.852;2023-08-01T09:11:35;9.13;;;2.90;;
12122;SDS011;6125;59.628;17.852;2023-08-01T09:14:07;3.33;;;1.63;;
12122;SDS011;6125;59.628;17.852;2023-08-01T09:16:34;3.77;;;2.30;;
12122;SDS011;6125;59.628;17.852;2023-08-01T09:19:01;8.03;;;2.33;;
12122;SDS011;6125;59.628;17.852;2023-08-01T09:21:32;3.50;;;2.33;;
12122;SDS011;6125;59.628;17.852;2023-08-01T09:24:07;3.73;;;1.90;;
12122;SDS011;6125;59.628;17.852;2023-08-01T09:26:35;4.30;;;2.20;;
12122;SDS011;6125;59.628;17.852;2023-08-01T09:29:02;4.03;;;1.90;;
12122;SDS011;6125;59.628;17.852;2023-08-01T09:31:30;3.00;;;1.70;;
12122;SDS011;6125;59.628;17.852;2023-08-01T09:33:58;3.77;;;2.10;;
12122;SDS011;6125;59.628;17.852;2023-08-01T09:36:41;4.30;;;1.97;;
12122;SDS011;6125;59.628;17.852;2023-08-01T09:39:08;4.60;;;2.20;;
12122;SDS011;6125;59.628;17.852;2023-08-01T09:41:35;2.83;;;1.70;;
12122;SDS011;6125;59.628;17.852;2023-08-01T09:44:02;3.70;;;2.00;;
12122;SDS011;6125;59.628;17.852;2023-08-01T09:46:29;4.07;;;2.10;;
12122;SDS011;6125;59.628;17.852;2023-08-01T09:49:06;3.03;;;1.70;;
12122;SDS011;6125;59.628;17.852;2023-08-01T09:51:45;3.37;;;2.03;;
12122;SDS011;6125;59.628;17.852;2023-08-01T09:54:15;4.13;;;2.00;;
12122;SDS011;6125;59.628;17.852;2023-08-01T09:56:42;2.77;;;1.70;;
12122;SDS011;6125;59.628;17.852;2023-08-01T09:59:11;3.90;;;1.83;;
12122;SDS011;6125;59.628;17.852;2023-08-01T10:01:41;3.53;;;1.80;;
12122;SDS011;6125;59.628;17.852;2023-08-01T10:04:11;2.63;;;1.93;;
12122;SDS011;6125;59.628;17.852;2023-08-01T10:06:39;4.73;;;2.20;;
12122;SDS011;6125;59.628;17.852;2023-08-01T10:09:11;6.03;;;2.60;;
12122;SDS011;6125;59.628;17.852;2023-08-01T10:11:39;3.87;;;2.20;;
12122;SDS011;6125;59.628;17.852;2023-08-01T10:14:06;4.97;;;2.03;;
12122;SDS011;6125;59.628;17.852;2023-08-01T10:16:34;3.17;;;2.20;;
12122;SDS011;6125;59.628;17.852;2023-08-01T10:19:04;4.27;;;2.67;;
12122;SDS011;6125;59.628;17.852;2023-08-01T10:21:34;3.10;;;2.27;;
12122;SDS011;6125;59.628;17.852;2023-08-01T10:24:02;1.97;;;1.77;;
12122;SDS011;6125;59.628;17.852;2023-08-01T10:26:33;6.07;;;2.20;;
12122;SDS011;6125;59.628;17.852;2023-08-01T10:29:00;4.20;;;1.70;;
12122;SDS011;6125;59.628;17.852;2023-08-01T10:31:27;2.93;;;2.10;;
12122;SDS011;6125;59.628;17.852;2023-08-01T10:34:03;3.53;;;1.63;;
12122;SDS011;6125;59.628;17.852;2023-08-01T10:36:31;2.77;;;1.90;;
12122;SDS011;6125;59.628;17.852;2023-08-01T10:38:59;2.50;;;1.73;;
12122;SDS011;6125;59.628;17.852;2023-08-01T10:41:28;3.83;;;1.77;;
12122;SDS011;6125;59.628;17.852;2023-08-01T10:44:07;1.87;;;1.30;;
12122;SDS011;6125;59.628;17.852;2023-08-01T10:46:47;3.60;;;1.47;;
12122;SDS011;6125;59.628;17.852;2023-08-01T10:49:15;3.53;;;1.60;;
12122;SDS011;6125;59.628;17.852;2023-08-01T10:51:43;2.80;;;1.60;;
12122;SDS011;6125;59.628;17.852;2023-08-01T10:54:21;3.67;;;1.90;;
12122;SDS011;6125;59.628;17.852;2023-08-01T10:56:49;2.90;;;1.60;;
12122;SDS011;6125;59.628;17.852;2023-08-01T10:59:19;2.40;;;1.80;;
12122;SDS011;6125;59.628;17.852;2023-08-01T11:01:47;1.40;;;1.20;;
12122;SDS011;6125;59.628;17.852;2023-08-01T11:04:16;2.33;;;1.50;;
12122;SDS011;6125;59.628;17.852;2023-08-01T11:06:44;2.17;;;1.50;;
12122;SDS011;6125;59.628;17.852;2023-08-01T11:09:19;2.17;;;1.60;;
12122;SDS011;6125;59.628;17.852;2023-08-01T11:11:48;3.43;;;1.30;;
12122;SDS011;6125;59.628;17.852;2023-08-01T11:14:20;2.53;;;1.57;;
12122;SDS011;6125;59.628;17.852;2023-08-01T11:16:48;1.67;;;1.50;;
12122;SDS011;6125;59.628;17.852;2023-08-01T11:19:20;3.03;;;1.73;;
12122;SDS011;6125;59.628;17.852;2023-08-01T11:21:47;3.07;;;1.60;;
12122;SDS011;6125;59.628;17.852;2023-08-01T11:24:15;2.50;;;1.83;;
12122;SDS011;6125;59.628;17.852;2023-08-01T11:26:43;5.27;;;1.60;;
12122;SDS011;6125;59.628;17.852;2023-08-01T11:29:11;4.07;;;1.60;;
12122;SDS011;6125;59.628;17.852;2023-08-01T11:31:40;3.60;;;1.60;;
12122;SDS011;6125;59.628;17.852;2023-08-01T11:34:18;3.17;;;1.57;;
12122;SDS011;6125;59.628;17.852;2023-08-01T11:36:45;3.17;;;1.80;;
12122;SDS011;6125;59.628;17.852;2023-08-01T11:39:13;2.50;;;1.70;;
12122;SDS011;6125;59.628;17.852;2023-08-01T11:41:41;5.43;;;1.60;;
12122;SDS011;6125;59.628;17.852;2023-08-01T11:44:08;4.00;;;1.90;;
12122;SDS011;6125;59.628;17.852;2023-08-01T11:46:37;3.60;;;1.60;;
12122;SDS011;6125;59.628;17.852;2023-08-01T11:49:07;7.93;;;2.10;;
12122;SDS011;6125;59.628;17.852;2023-08-01T11:51:40;5.23;;;1.83;;
12122;SDS011;6125;59.628;17.852;2023-08-01T11:54:09;2.77;;;1.60;;
12122;SDS011;6125;59.628;17.852;2023-08-01T11:56:38;2.57;;;1.43;;
12122;SDS011;6125;59.628;17.852;2023-08-01T11:59:09;2.37;;;1.60;;
12122;SDS011;6125;59.628;17.852;2023-08-01T12:01:39;2.97;;;1.53;;
12122;SDS011;6125;59.628;17.852;2023-08-01T12:04:08;2.23;;;1.50;;
12122;SDS011;6125;59.628;17.852;2023-08-01T12:06:35;2.77;;;1.63;;
12122;SDS011;6125;59.628;17.852;2023-08-01T12:09:08;2.03;;;1.50;;
12122;SDS011;6125;59.628;17.852;2023-08-01T12:11:37;1.83;;;1.60;;
12122;SDS011;6125;59.628;17.852;2023-08-01T12:14:06;3.00;;;1.90;;
12122;SDS011;6125;59.628;17.852;2023-08-01T12:16:34;1.67;;;1.17;;
12122;SDS011;6125;59.628;17.852;2023-08-01T12:19:02;2.13;;;1.43;;
12122;SDS011;6125;59.628;17.852;2023-08-01T12:21:31;2.07;;;1.67;;
12122;SDS011;6125;59.628;17.852;2023-08-01T12:23:59;3.77;;;1.20;;
12122;SDS011;6125;59.628;17.852;2023-08-01T12:26:27;2.10;;;1.40;;
12122;SDS011;6125;59.628;17.852;2023-08-01T12:28:54;2.87;;;1.33;;
12122;SDS011;6125;59.628;17.852;2023-08-01T12:31:21;2.37;;;1.37;;
12122;SDS011;6125;59.628;17.852;2023-08-01T12:33:49;3.13;;;1.60;;
12122;SDS011;6125;59.628;17.852;2023-08-01T12:36:17;5.13;;;1.50;;
12122;SDS011;6125;59.628;17.852;2023-08-01T12:38:46;2.13;;;1.43;;
12122;SDS011;6125;59.628;17.852;2023-08-01T12:41:13;2.10;;;1.63;;
12122;SDS011;6125;59.628;17.852;2023-08-01T12:43:40;3.97;;;1.57;;
12122;SDS011;6125;59.628;17.852;2023-08-01T12:46:07;1.97;;;1.50;;
12122;SDS011;6125;59.628;17.852;2023-08-01T12:48:34;1.63;;;1.50;;
12122;SDS011;6125;59.628;17.852;2023-08-01T12:51:02;2.73;;;1.40;;
12122;SDS011;6125;59.628;17.852;2023-08-01T12:53:29;1.63;;;1.43;;
12122;SDS011;6125;59.628;17.852;2023-08-01T12:55:57;2.30;;;1.57;;
12122;SDS011;6125;59.628;17.852;2023-08-01T12:58:24;2.53;;;1.53;;
12122;SDS011;6125;59.628;17.852;2023-08-01T13:00:51;2.30;;;1.60;;
12122;SDS011;6125;59.628;17.852;2023-08-01T13:03:18;2.10;;;1.23;;
12122;SDS011;6125;59.628;17.852;2023-08-01T13:05:45;2.90;;;1.60;;
12122;SDS011;6125;59.628;17.852;2023-08-01T13:08:12;1.47;;;1.37;;
12122;SDS011;6125;59.628;17.852;2023-08-01T13:10:39;1.60;;;1.30;;
12122;SDS011;6125;59.628;17.852;2023-08-01T13:13:11;3.23;;;1.77;;
12122;SDS011;6125;59.628;17.852;2023-08-01T13:15:38;1.30;;;1.20;;
12122;SDS011;6125;59.628;17.852;2023-08-01T13:18:05;2.07;;;1.43;;
12122;SDS011;6125;59.628;17.852;2023-08-01T13:20:32;4.53;;;1.47;;
12122;SDS011;6125;59.628;17.852;2023-08-01T13:22:59;1.90;;;1.40;;
12122;SDS011;6125;59.628;17.852;2023-08-01T13:25:26;2.97;;;1.40;;
12122;SDS011;6125;59.628;17.852;2023-08-01T13:27:53;1.97;;;1.50;;
12122;SDS011;6125;59.628;17.852;2023-08-01T13:30:22;2.20;;;1.40;;
12122;SDS011;6125;59.628;17.852;2023-08-01T13:32:49;1.83;;;1.40;;
12122;SDS011;6125;59.628;17.852;2023-08-01T13:35:16;1.90;;;1.37;;
12122;SDS011;6125;59.628;17.852;2023-08-01T13:37:43;1.83;;;1.30;;
12122;SDS011;6125;59.628;17.852;2023-08-01T13:40:10;1.67;;;1.57;;
12122;SDS011;6125;59.628;17.852;2023-08-01T13:42:39;3.57;;;1.47;;
12122;SDS011;6125;59.628;17.852;2023-08-01T13:45:06;2.30;;;1.33;;
12122;SDS011;6125;59.628;17.852;2023-08-01T13:47:35;1.53;;;1.30;;
12122;SDS011;6125;59.628;17.852;2023-08-01T13:50:02;3.13;;;1.53;;
12122;SDS011;6125;59.628;17.852;2023-08-01T13:52:30;3.13;;;1.63;;
12122;SDS011;6125;59.628;17.852;2023-08-01T13:54:57;1.87;;;1.40;;
12122;SDS011;6125;59.628;17.852;2023-08-01T13:57:25;3.70;;;1.50;;
12122;SDS011;6125;59.628;17.852;2023-08-01T13:59:52;2.10;;;1.70;;
12122;SDS011;6125;59.628;17.852;2023-08-01T14:02:19;3.43;;;1.60;;
12122;SDS011;6125;59.628;17.852;2023-08-01T14:04:48;2.57;;;1.53;;
12122;SDS011;6125;59.628;17.852;2023-08-01T14:07:18;1.70;;;1.30;;
12122;SDS011;6125;59.628;17.852;2023-08-01T14:09:45;1.73;;;1.40;;
12122;SDS011;6125;59.628;17.852;2023-08-01T14:12:12;2.13;;;1.33;;
12122;SDS011;6125;59.628;17.852;2023-08-01T14:14:41;3.13;;;1.43;;
12122;SDS011;6125;59.628;17.852;2023-08-01T14:17:08;1.70;;;1.53;;
12122;SDS011;6125;59.628;17.852;2023-08-01T14:19:35;1.97;;;1.50;;
12122;SDS011;6125;59.628;17.852;2023-08-01T14:22:04;1.43;;;1.33;;
12122;SDS011;6125;59.628;17.852;2023-08-01T14:24:31;3.10;;;1.40;;
12122;SDS011;6125;59.628;17.852;2023-08-01T14:26:58;3.43;;;1.43;;
12122;SDS011;6125;59.628;17.852;2023-08-01T14:29:25;1.00;;;1.00;;
12122;SDS011;6125;59.628;17.852;2023-08-01T14:31:52;2.57;;;1.60;;
12122;SDS011;6125;59.628;17.852;2023-08-01T14:34:19;2.90;;;1.60;;
12122;SDS011;6125;59.628;17.852;2023-08-01T14:36:46;3.03;;;1.37;;
12122;SDS011;6125;59.628;17.852;2023-08-01T14:39:15;1.40;;;1.30;;
12122;SDS011;6125;59.628;17.852;2023-08-01T14:41:42;3.43;;;1.30;;
12122;SDS011;6125;59.628;17.852;2023-08-01T14:44:09;3.73;;;1.60;;
12122;SDS011;6125;59.628;17.852;2023-08-01T14:46:36;1.70;;;1.40;;
12122;SDS011;6125;59.628;17.852;2023-08-01T14:49:03;1.60;;;1.37;;
12122;SDS011;6125;59.628;17.852;2023-08-01T14:51:30;1.50;;;1.10;;